Terminal Aerodrome Forecast
Issued by NWS

Home | Current Version | Previous Version | Text Only | Print | Product List | Glossary On
Versions: 1 2 3 4 5 6 7 8 9 10 11 12 13 14
916
FTUS41 KPHI 280940 AAA
TAFPNE
TAF AMD
KPNE 280940Z 2810/2906 02004KT 1SM BR SCT003
     FM281230 05008KT P6SM SCT005 BKN200
      TEMPO 2813/2815 BKN009
     FM281600 07010KT P6SM SCT010 BKN025
     FM281900 08012G18KT P6SM BKN015
     FM282300 07014G22KT 6SM -DZ OVC008
     FM290400 06011G18KT 5SM -DZRA BKN009 OVC020=

USA.gov is the U.S. government's official web portal to all federal, state and local government web resources and services.